sensor_id;sensor_type;location;lat;lon;timestamp;P1;durP1;ratioP1;P2;durP2;ratioP2
11877;SDS011;5998;42.676;23.268;2023-09-07T00:01:24;8.67;;;6.77;;
11877;SDS011;5998;42.676;23.268;2023-09-07T00:03:50;8.47;;;7.23;;
11877;SDS011;5998;42.676;23.268;2023-09-07T00:06:17;15.80;;;14.40;;
11877;SDS011;5998;42.676;23.268;2023-09-07T00:08:43;9.27;;;6.93;;
11877;SDS011;5998;42.676;23.268;2023-09-07T00:11:10;8.23;;;7.43;;
11877;SDS011;5998;42.676;23.268;2023-09-07T00:13:36;7.83;;;7.13;;
11877;SDS011;5998;42.676;23.268;2023-09-07T00:16:04;8.63;;;7.73;;
11877;SDS011;5998;42.676;23.268;2023-09-07T00:18:31;9.57;;;7.80;;
11877;SDS011;5998;42.676;23.268;2023-09-07T00:20:58;9.30;;;7.23;;
11877;SDS011;5998;42.676;23.268;2023-09-07T00:23:25;9.90;;;8.00;;
11877;SDS011;5998;42.676;23.268;2023-09-07T00:25:51;9.37;;;8.03;;
11877;SDS011;5998;42.676;23.268;2023-09-07T00:28:18;8.60;;;7.77;;
11877;SDS011;5998;42.676;23.268;2023-09-07T00:30:44;9.97;;;7.90;;
11877;SDS011;5998;42.676;23.268;2023-09-07T00:33:12;9.47;;;8.47;;
11877;SDS011;5998;42.676;23.268;2023-09-07T00:35:38;9.30;;;8.30;;
11877;SDS011;5998;42.676;23.268;2023-09-07T00:38:05;8.60;;;7.70;;
11877;SDS011;5998;42.676;23.268;2023-09-07T00:40:31;8.50;;;7.57;;
11877;SDS011;5998;42.676;23.268;2023-09-07T00:42:58;9.33;;;8.33;;
11877;SDS011;5998;42.676;23.268;2023-09-07T00:45:24;9.20;;;8.13;;
11877;SDS011;5998;42.676;23.268;2023-09-07T00:47:51;9.80;;;8.30;;
11877;SDS011;5998;42.676;23.268;2023-09-07T00:50:19;9.87;;;8.97;;
11877;SDS011;5998;42.676;23.268;2023-09-07T00:52:45;11.23;;;10.07;;
11877;SDS011;5998;42.676;23.268;2023-09-07T00:55:13;12.47;;;10.00;;
11877;SDS011;5998;42.676;23.268;2023-09-07T00:57:39;9.50;;;8.57;;
11877;SDS011;5998;42.676;23.268;2023-09-07T01:00:08;12.23;;;9.47;;
11877;SDS011;5998;42.676;23.268;2023-09-07T01:02:34;10.10;;;8.97;;
11877;SDS011;5998;42.676;23.268;2023-09-07T01:05:01;11.37;;;10.37;;
11877;SDS011;5998;42.676;23.268;2023-09-07T01:07:31;9.50;;;8.70;;
11877;SDS011;5998;42.676;23.268;2023-09-07T01:09:59;11.30;;;10.10;;
11877;SDS011;5998;42.676;23.268;2023-09-07T01:12:26;11.70;;;10.53;;
11877;SDS011;5998;42.676;23.268;2023-09-07T01:14:53;10.77;;;9.80;;
11877;SDS011;5998;42.676;23.268;2023-09-07T01:17:19;12.90;;;11.57;;
11877;SDS011;5998;42.676;23.268;2023-09-07T01:19:47;11.90;;;10.37;;
11877;SDS011;5998;42.676;23.268;2023-09-07T01:22:16;12.60;;;11.50;;
11877;SDS011;5998;42.676;23.268;2023-09-07T01:24:42;11.93;;;10.83;;
11877;SDS011;5998;42.676;23.268;2023-09-07T01:27:09;13.17;;;11.63;;
11877;SDS011;5998;42.676;23.268;2023-09-07T01:29:38;13.20;;;11.80;;
11877;SDS011;5998;42.676;23.268;2023-09-07T01:32:05;12.73;;;11.63;;
11877;SDS011;5998;42.676;23.268;2023-09-07T01:34:31;13.67;;;12.37;;
11877;SDS011;5998;42.676;23.268;2023-09-07T01:36:58;13.60;;;11.43;;
11877;SDS011;5998;42.676;23.268;2023-09-07T01:39:25;13.10;;;11.30;;
11877;SDS011;5998;42.676;23.268;2023-09-07T01:41:52;12.83;;;11.63;;
11877;SDS011;5998;42.676;23.268;2023-09-07T01:44:19;11.53;;;10.47;;
11877;SDS011;5998;42.676;23.268;2023-09-07T01:46:45;12.77;;;11.47;;
11877;SDS011;5998;42.676;23.268;2023-09-07T01:49:11;12.13;;;11.03;;
11877;SDS011;5998;42.676;23.268;2023-09-07T01:51:38;11.77;;;10.77;;
11877;SDS011;5998;42.676;23.268;2023-09-07T01:54:04;12.97;;;11.77;;
11877;SDS011;5998;42.676;23.268;2023-09-07T01:56:33;12.43;;;11.03;;
11877;SDS011;5998;42.676;23.268;2023-09-07T01:58:59;12.13;;;10.93;;
11877;SDS011;5998;42.676;23.268;2023-09-07T02:01:26;12.93;;;11.63;;
11877;SDS011;5998;42.676;23.268;2023-09-07T02:03:54;12.97;;;11.43;;
11877;SDS011;5998;42.676;23.268;2023-09-07T02:06:21;12.83;;;11.57;;
11877;SDS011;5998;42.676;23.268;2023-09-07T02:08:47;13.63;;;12.23;;
11877;SDS011;5998;42.676;23.268;2023-09-07T02:11:14;12.67;;;11.27;;
11877;SDS011;5998;42.676;23.268;2023-09-07T02:13:42;13.83;;;12.37;;
11877;SDS011;5998;42.676;23.268;2023-09-07T02:16:09;15.63;;;11.97;;
11877;SDS011;5998;42.676;23.268;2023-09-07T02:18:35;13.97;;;12.57;;
11877;SDS011;5998;42.676;23.268;2023-09-07T02:21:02;15.43;;;12.33;;
11877;SDS011;5998;42.676;23.268;2023-09-07T02:23:29;12.63;;;11.37;;
11877;SDS011;5998;42.676;23.268;2023-09-07T02:25:56;15.23;;;12.57;;
11877;SDS011;5998;42.676;23.268;2023-09-07T02:28:23;13.43;;;12.10;;
11877;SDS011;5998;42.676;23.268;2023-09-07T02:30:50;15.90;;;13.17;;
11877;SDS011;5998;42.676;23.268;2023-09-07T02:33:17;14.13;;;12.30;;
11877;SDS011;5998;42.676;23.268;2023-09-07T02:35:43;13.80;;;12.60;;
11877;SDS011;5998;42.676;23.268;2023-09-07T02:38:10;13.37;;;11.73;;
11877;SDS011;5998;42.676;23.268;2023-09-07T02:40:39;13.80;;;12.03;;
11877;SDS011;5998;42.676;23.268;2023-09-07T02:43:06;13.10;;;11.80;;
11877;SDS011;5998;42.676;23.268;2023-09-07T02:45:32;13.17;;;11.80;;
11877;SDS011;5998;42.676;23.268;2023-09-07T02:48:00;14.83;;;13.20;;
11877;SDS011;5998;42.676;23.268;2023-09-07T02:50:27;17.07;;;13.03;;
11877;SDS011;5998;42.676;23.268;2023-09-07T02:52:54;14.57;;;13.10;;
11877;SDS011;5998;42.676;23.268;2023-09-07T02:55:20;13.90;;;12.60;;
11877;SDS011;5998;42.676;23.268;2023-09-07T02:57:47;15.23;;;13.60;;
11877;SDS011;5998;42.676;23.268;2023-09-07T03:00:13;14.77;;;13.30;;
11877;SDS011;5998;42.676;23.268;2023-09-07T03:02:42;15.63;;;14.03;;
11877;SDS011;5998;42.676;23.268;2023-09-07T03:05:10;14.97;;;13.47;;
11877;SDS011;5998;42.676;23.268;2023-09-07T03:07:36;14.70;;;13.10;;
11877;SDS011;5998;42.676;23.268;2023-09-07T03:10:04;15.37;;;13.93;;
11877;SDS011;5998;42.676;23.268;2023-09-07T03:12:31;15.03;;;13.53;;
11877;SDS011;5998;42.676;23.268;2023-09-07T03:14:57;14.40;;;13.00;;
11877;SDS011;5998;42.676;23.268;2023-09-07T03:17:28;15.57;;;13.97;;
11877;SDS011;5998;42.676;23.268;2023-09-07T03:19:54;15.67;;;14.17;;
11877;SDS011;5998;42.676;23.268;2023-09-07T03:22:22;16.93;;;15.27;;
11877;SDS011;5998;42.676;23.268;2023-09-07T03:24:49;18.83;;;15.10;;
11877;SDS011;5998;42.676;23.268;2023-09-07T03:27:16;17.13;;;15.43;;
11877;SDS011;5998;42.676;23.268;2023-09-07T03:29:43;18.90;;;15.03;;
11877;SDS011;5998;42.676;23.268;2023-09-07T03:32:10;15.93;;;14.07;;
11877;SDS011;5998;42.676;23.268;2023-09-07T03:34:36;17.97;;;16.07;;
11877;SDS011;5998;42.676;23.268;2023-09-07T03:37:03;16.57;;;14.87;;
11877;SDS011;5998;42.676;23.268;2023-09-07T03:39:32;19.13;;;17.23;;
11877;SDS011;5998;42.676;23.268;2023-09-07T03:41:59;18.50;;;16.50;;
11877;SDS011;5998;42.676;23.268;2023-09-07T03:44:25;18.83;;;17.03;;
11877;SDS011;5998;42.676;23.268;2023-09-07T03:46:51;17.17;;;15.50;;
11877;SDS011;5998;42.676;23.268;2023-09-07T03:49:18;18.73;;;16.83;;
11877;SDS011;5998;42.676;23.268;2023-09-07T03:51:44;17.57;;;15.77;;
11877;SDS011;5998;42.676;23.268;2023-09-07T03:54:10;16.60;;;14.90;;
11877;SDS011;5998;42.676;23.268;2023-09-07T03:56:38;17.60;;;15.80;;
11877;SDS011;5998;42.676;23.268;2023-09-07T03:59:05;17.70;;;15.90;;
11877;SDS011;5998;42.676;23.268;2023-09-07T04:01:31;19.07;;;17.27;;
11877;SDS011;5998;42.676;23.268;2023-09-07T04:03:58;20.30;;;17.33;;
11877;SDS011;5998;42.676;23.268;2023-09-07T04:06:24;18.73;;;16.87;;
11877;SDS011;5998;42.676;23.268;2023-09-07T04:08:50;16.40;;;14.80;;
11877;SDS011;5998;42.676;23.268;2023-09-07T04:11:17;19.30;;;17.33;;
11877;SDS011;5998;42.676;23.268;2023-09-07T04:13:45;17.43;;;15.67;;
11877;SDS011;5998;42.676;23.268;2023-09-07T04:16:11;19.03;;;17.07;;
11877;SDS011;5998;42.676;23.268;2023-09-07T04:18:37;18.67;;;16.57;;
11877;SDS011;5998;42.676;23.268;2023-09-07T04:21:04;17.00;;;15.33;;
11877;SDS011;5998;42.676;23.268;2023-09-07T04:23:31;19.50;;;17.53;;
11877;SDS011;5998;42.676;23.268;2023-09-07T04:26:03;19.17;;;17.13;;
11877;SDS011;5998;42.676;23.268;2023-09-07T04:28:29;19.43;;;17.43;;
11877;SDS011;5998;42.676;23.268;2023-09-07T04:30:57;18.67;;;16.77;;
11877;SDS011;5998;42.676;23.268;2023-09-07T04:33:24;20.33;;;18.20;;
11877;SDS011;5998;42.676;23.268;2023-09-07T04:35:50;18.40;;;16.57;;
11877;SDS011;5998;42.676;23.268;2023-09-07T04:38:16;19.10;;;17.17;;
11877;SDS011;5998;42.676;23.268;2023-09-07T04:40:43;19.40;;;17.43;;
11877;SDS011;5998;42.676;23.268;2023-09-07T04:43:09;17.60;;;15.87;;
11877;SDS011;5998;42.676;23.268;2023-09-07T04:45:36;16.00;;;14.57;;
11877;SDS011;5998;42.676;23.268;2023-09-07T04:48:04;19.13;;;17.07;;
11877;SDS011;5998;42.676;23.268;2023-09-07T04:50:31;18.57;;;16.77;;
11877;SDS011;5998;42.676;23.268;2023-09-07T04:52:56;18.97;;;17.00;;
11877;SDS011;5998;42.676;23.268;2023-09-07T04:55:22;19.47;;;16.87;;
11877;SDS011;5998;42.676;23.268;2023-09-07T04:57:49;18.57;;;16.77;;
11877;SDS011;5998;42.676;23.268;2023-09-07T05:00:15;17.97;;;16.07;;
11877;SDS011;5998;42.676;23.268;2023-09-07T05:02:42;17.27;;;15.60;;
11877;SDS011;5998;42.676;23.268;2023-09-07T05:05:10;17.20;;;15.47;;
11877;SDS011;5998;42.676;23.268;2023-09-07T05:07:36;16.43;;;14.77;;
11877;SDS011;5998;42.676;23.268;2023-09-07T05:10:03;16.70;;;14.73;;
11877;SDS011;5998;42.676;23.268;2023-09-07T05:12:31;16.90;;;15.20;;
11877;SDS011;5998;42.676;23.268;2023-09-07T05:14:58;17.70;;;15.13;;
11877;SDS011;5998;42.676;23.268;2023-09-07T05:17:25;18.13;;;15.93;;
11877;SDS011;5998;42.676;23.268;2023-09-07T05:19:52;17.80;;;15.90;;
11877;SDS011;5998;42.676;23.268;2023-09-07T05:22:20;16.97;;;15.23;;
11877;SDS011;5998;42.676;23.268;2023-09-07T05:24:48;14.90;;;13.47;;
11877;SDS011;5998;42.676;23.268;2023-09-07T05:27:14;17.10;;;15.27;;
11877;SDS011;5998;42.676;23.268;2023-09-07T05:29:41;18.10;;;15.93;;
11877;SDS011;5998;42.676;23.268;2023-09-07T05:32:09;16.33;;;14.30;;
11877;SDS011;5998;42.676;23.268;2023-09-07T05:34:36;19.63;;;16.37;;
11877;SDS011;5998;42.676;23.268;2023-09-07T05:37:02;16.47;;;14.83;;
11877;SDS011;5998;42.676;23.268;2023-09-07T05:39:30;18.40;;;16.50;;
11877;SDS011;5998;42.676;23.268;2023-09-07T05:41:58;16.97;;;15.27;;
11877;SDS011;5998;42.676;23.268;2023-09-07T05:44:24;19.20;;;17.20;;
11877;SDS011;5998;42.676;23.268;2023-09-07T05:46:51;22.13;;;17.37;;
11877;SDS011;5998;42.676;23.268;2023-09-07T05:49:18;17.20;;;15.50;;
11877;SDS011;5998;42.676;23.268;2023-09-07T05:51:44;18.77;;;16.77;;
11877;SDS011;5998;42.676;23.268;2023-09-07T05:54:10;17.23;;;13.77;;
11877;SDS011;5998;42.676;23.268;2023-09-07T05:56:38;17.50;;;15.80;;
11877;SDS011;5998;42.676;23.268;2023-09-07T05:59:05;17.13;;;15.37;;
11877;SDS011;5998;42.676;23.268;2023-09-07T06:01:31;16.50;;;14.93;;
11877;SDS011;5998;42.676;23.268;2023-09-07T06:03:58;19.50;;;15.40;;
11877;SDS011;5998;42.676;23.268;2023-09-07T06:06:24;15.43;;;12.93;;
11877;SDS011;5998;42.676;23.268;2023-09-07T06:08:51;13.47;;;12.17;;
11877;SDS011;5998;42.676;23.268;2023-09-07T06:11:17;15.53;;;12.80;;
11877;SDS011;5998;42.676;23.268;2023-09-07T06:13:46;15.43;;;13.53;;
11877;SDS011;5998;42.676;23.268;2023-09-07T06:16:15;13.27;;;11.87;;
11877;SDS011;5998;42.676;23.268;2023-09-07T06:18:42;13.50;;;12.10;;
11877;SDS011;5998;42.676;23.268;2023-09-07T06:21:08;15.20;;;12.10;;
11877;SDS011;5998;42.676;23.268;2023-09-07T06:23:34;13.47;;;11.67;;
11877;SDS011;5998;42.676;23.268;2023-09-07T06:26:01;12.77;;;11.57;;
11877;SDS011;5998;42.676;23.268;2023-09-07T06:28:28;12.47;;;11.20;;
11877;SDS011;5998;42.676;23.268;2023-09-07T06:30:55;12.03;;;10.50;;
11877;SDS011;5998;42.676;23.268;2023-09-07T06:33:22;12.07;;;10.77;;
11877;SDS011;5998;42.676;23.268;2023-09-07T06:35:48;11.33;;;9.90;;
11877;SDS011;5998;42.676;23.268;2023-09-07T06:38:15;11.90;;;10.70;;
11877;SDS011;5998;42.676;23.268;2023-09-07T06:40:46;13.93;;;10.30;;
11877;SDS011;5998;42.676;23.268;2023-09-07T06:43:13;10.70;;;9.57;;
11877;SDS011;5998;42.676;23.268;2023-09-07T06:45:39;13.97;;;9.47;;
11877;SDS011;5998;42.676;23.268;2023-09-07T06:48:07;9.63;;;8.43;;
11877;SDS011;5998;42.676;23.268;2023-09-07T06:50:34;10.00;;;8.40;;
11877;SDS011;5998;42.676;23.268;2023-09-07T06:53:00;9.83;;;8.67;;
11877;SDS011;5998;42.676;23.268;2023-09-07T06:55:27;11.60;;;9.03;;
11877;SDS011;5998;42.676;23.268;2023-09-07T06:57:54;9.63;;;7.97;;
11877;SDS011;5998;42.676;23.268;2023-09-07T07:00:20;9.13;;;8.27;;
11877;SDS011;5998;42.676;23.268;2023-09-07T07:02:47;9.53;;;7.70;;
11877;SDS011;5998;42.676;23.268;2023-09-07T07:05:15;12.67;;;8.47;;
11877;SDS011;5998;42.676;23.268;2023-09-07T07:07:41;10.30;;;7.83;;
11877;SDS011;5998;42.676;23.268;2023-09-07T07:10:08;10.60;;;8.20;;
11877;SDS011;5998;42.676;23.268;2023-09-07T07:12:34;9.73;;;8.03;;
11877;SDS011;5998;42.676;23.268;2023-09-07T07:15:03;12.13;;;9.00;;
11877;SDS011;5998;42.676;23.268;2023-09-07T07:17:30;9.33;;;7.40;;
11877;SDS011;5998;42.676;23.268;2023-09-07T07:19:56;13.33;;;8.70;;
11877;SDS011;5998;42.676;23.268;2023-09-07T07:22:24;9.30;;;8.40;;
11877;SDS011;5998;42.676;23.268;2023-09-07T07:24:50;9.43;;;7.93;;
11877;SDS011;5998;42.676;23.268;2023-09-07T07:27:17;11.90;;;8.33;;
11877;SDS011;5998;42.676;23.268;2023-09-07T07:29:43;8.60;;;7.70;;
11877;SDS011;5998;42.676;23.268;2023-09-07T07:32:10;11.23;;;8.87;;
11877;SDS011;5998;42.676;23.268;2023-09-07T07:34:36;11.17;;;9.10;;
11877;SDS011;5998;42.676;23.268;2023-09-07T07:37:03;11.10;;;8.17;;
11877;SDS011;5998;42.676;23.268;2023-09-07T07:39:31;9.30;;;8.40;;
11877;SDS011;5998;42.676;23.268;2023-09-07T07:41:57;13.80;;;8.33;;
11877;SDS011;5998;42.676;23.268;2023-09-07T07:44:23;9.67;;;7.20;;
11877;SDS011;5998;42.676;23.268;2023-09-07T07:46:50;8.60;;;7.37;;
11877;SDS011;5998;42.676;23.268;2023-09-07T07:49:16;8.87;;;7.80;;
11877;SDS011;5998;42.676;23.268;2023-09-07T07:51:43;10.73;;;8.23;;
11877;SDS011;5998;42.676;23.268;2023-09-07T07:54:09;10.03;;;8.00;;
11877;SDS011;5998;42.676;23.268;2023-09-07T07:56:38;9.43;;;8.43;;
11877;SDS011;5998;42.676;23.268;2023-09-07T07:59:04;12.33;;;8.50;;
11877;SDS011;5998;42.676;23.268;2023-09-07T08:01:31;8.47;;;7.67;;
11877;SDS011;5998;42.676;23.268;2023-09-07T08:03:57;7.83;;;7.03;;
11877;SDS011;5998;42.676;23.268;2023-09-07T08:06:24;8.90;;;7.40;;
11877;SDS011;5998;42.676;23.268;2023-09-07T08:08:50;9.40;;;7.63;;
11877;SDS011;5998;42.676;23.268;2023-09-07T08:11:16;9.23;;;7.53;;
11877;SDS011;5998;42.676;23.268;2023-09-07T08:13:47;8.60;;;7.00;;
11877;SDS011;5998;42.676;23.268;2023-09-07T08:16:14;8.77;;;7.57;;
11877;SDS011;5998;42.676;23.268;2023-09-07T08:18:40;7.67;;;6.97;;
11877;SDS011;5998;42.676;23.268;2023-09-07T08:21:07;7.00;;;6.40;;
11877;SDS011;5998;42.676;23.268;2023-09-07T08:23:33;8.50;;;7.60;;
11877;SDS011;5998;42.676;23.268;2023-09-07T08:26:00;10.17;;;7.43;;
11877;SDS011;5998;42.676;23.268;2023-09-07T08:28:26;7.67;;;6.87;;
11877;SDS011;5998;42.676;23.268;2023-09-07T08:30:55;8.57;;;7.70;;
11877;SDS011;5998;42.676;23.268;2023-09-07T08:33:24;14.97;;;7.47;;
11877;SDS011;5998;42.676;23.268;2023-09-07T08:35:54;9.50;;;7.73;;
11877;SDS011;5998;42.676;23.268;2023-09-07T08:38:20;10.73;;;7.10;;
11877;SDS011;5998;42.676;23.268;2023-09-07T08:40:49;7.80;;;7.00;;
11877;SDS011;5998;42.676;23.268;2023-09-07T08:43:16;9.10;;;7.50;;
11877;SDS011;5998;42.676;23.268;2023-09-07T08:45:45;7.43;;;6.63;;
11877;SDS011;5998;42.676;23.268;2023-09-07T08:48:15;8.90;;;6.37;;
11877;SDS011;5998;42.676;23.268;2023-09-07T08:50:42;8.80;;;6.80;;
11877;SDS011;5998;42.676;23.268;2023-09-07T08:53:15;10.30;;;7.20;;
11877;SDS011;5998;42.676;23.268;2023-09-07T08:55:42;7.80;;;7.00;;
11877;SDS011;5998;42.676;23.268;2023-09-07T08:58:09;7.90;;;7.07;;
11877;SDS011;5998;42.676;23.268;2023-09-07T09:00:35;9.77;;;7.63;;
11877;SDS011;5998;42.676;23.268;2023-09-07T09:03:03;9.17;;;7.20;;
11877;SDS011;5998;42.676;23.268;2023-09-07T09:05:31;8.50;;;6.93;;
11877;SDS011;5998;42.676;23.268;2023-09-07T09:08:01;7.97;;;7.23;;
11877;SDS011;5998;42.676;23.268;2023-09-07T09:10:29;8.20;;;6.87;;
11877;SDS011;5998;42.676;23.268;2023-09-07T09:12:55;7.47;;;6.67;;
11877;SDS011;5998;42.676;23.268;2023-09-07T09:15:21;7.97;;;7.10;;
11877;SDS011;5998;42.676;23.268;2023-09-07T09:17:48;6.13;;;5.53;;
11877;SDS011;5998;42.676;23.268;2023-09-07T09:20:21;6.60;;;6.00;;
11877;SDS011;5998;42.676;23.268;2023-09-07T09:22:51;7.13;;;6.20;;
11877;SDS011;5998;42.676;23.268;2023-09-07T09:25:17;8.13;;;5.77;;
11877;SDS011;5998;42.676;23.268;2023-09-07T09:27:44;7.87;;;6.20;;
11877;SDS011;5998;42.676;23.268;2023-09-07T09:30:11;7.90;;;5.73;;
11877;SDS011;5998;42.676;23.268;2023-09-07T09:32:40;8.07;;;6.17;;
11877;SDS011;5998;42.676;23.268;2023-09-07T09:35:07;11.60;;;6.77;;
11877;SDS011;5998;42.676;23.268;2023-09-07T09:37:34;6.40;;;5.80;;
11877;SDS011;5998;42.676;23.268;2023-09-07T09:40:10;5.97;;;5.37;;
11877;SDS011;5998;42.676;23.268;2023-09-07T09:42:37;7.43;;;6.23;;
11877;SDS011;5998;42.676;23.268;2023-09-07T09:45:04;6.43;;;5.77;;
11877;SDS011;5998;42.676;23.268;2023-09-07T09:47:31;7.03;;;5.73;;
11877;SDS011;5998;42.676;23.268;2023-09-07T09:49:57;8.37;;;5.70;;
11877;SDS011;5998;42.676;23.268;2023-09-07T09:52:24;6.57;;;5.97;;
11877;SDS011;5998;42.676;23.268;2023-09-07T09:54:51;6.13;;;5.57;;
11877;SDS011;5998;42.676;23.268;2023-09-07T09:57:19;10.57;;;5.97;;
11877;SDS011;5998;42.676;23.268;2023-09-07T09:59:46;6.50;;;5.17;;
11877;SDS011;5998;42.676;23.268;2023-09-07T10:02:13;6.67;;;5.83;;
11877;SDS011;5998;42.676;23.268;2023-09-07T10:04:40;9.43;;;6.30;;
11877;SDS011;5998;42.676;23.268;2023-09-07T10:07:07;9.83;;;5.50;;
11877;SDS011;5998;42.676;23.268;2023-09-07T10:09:33;5.50;;;5.10;;
11877;SDS011;5998;42.676;23.268;2023-09-07T10:12:02;6.20;;;5.70;;
11877;SDS011;5998;42.676;23.268;2023-09-07T10:14:38;9.93;;;5.80;;
11877;SDS011;5998;42.676;23.268;2023-09-07T10:17:06;6.40;;;5.80;;
11877;SDS011;5998;42.676;23.268;2023-09-07T10:19:34;7.87;;;5.47;;
11877;SDS011;5998;42.676;23.268;2023-09-07T10:22:02;5.93;;;5.30;;
11877;SDS011;5998;42.676;23.268;2023-09-07T10:24:29;6.53;;;5.47;;
11877;SDS011;5998;42.676;23.268;2023-09-07T10:26:56;6.03;;;5.43;;
11877;SDS011;5998;42.676;23.268;2023-09-07T10:29:22;6.90;;;5.73;;
11877;SDS011;5998;42.676;23.268;2023-09-07T10:31:51;6.03;;;5.50;;
11877;SDS011;5998;42.676;23.268;2023-09-07T10:34:18;6.50;;;5.63;;
11877;SDS011;5998;42.676;23.268;2023-09-07T10:36:45;8.30;;;5.60;;
11877;SDS011;5998;42.676;23.268;2023-09-07T10:39:11;8.97;;;5.73;;
11877;SDS011;5998;42.676;23.268;2023-09-07T10:41:41;7.13;;;5.63;;
11877;SDS011;5998;42.676;23.268;2023-09-07T10:44:08;5.93;;;5.43;;
11877;SDS011;5998;42.676;23.268;2023-09-07T10:46:35;7.87;;;5.47;;
11877;SDS011;5998;42.676;23.268;2023-09-07T10:49:05;8.03;;;6.00;;
11877;SDS011;5998;42.676;23.268;2023-09-07T10:51:32;6.00;;;5.20;;
11877;SDS011;5998;42.676;23.268;2023-09-07T10:53:59;5.77;;;5.27;;
11877;SDS011;5998;42.676;23.268;2023-09-07T10:56:26;6.00;;;5.50;;
11877;SDS011;5998;42.676;23.268;2023-09-07T10:58:53;7.23;;;5.53;;
11877;SDS011;5998;42.676;23.268;2023-09-07T11:01:20;6.80;;;5.40;;
11877;SDS011;5998;42.676;23.268;2023-09-07T11:03:46;5.73;;;5.20;;
11877;SDS011;5998;42.676;23.268;2023-09-07T11:06:15;9.00;;;5.53;;
11877;SDS011;5998;42.676;23.268;2023-09-07T11:08:44;8.50;;;5.60;;
11877;SDS011;5998;42.676;23.268;2023-09-07T11:11:10;5.70;;;5.17;;
11877;SDS011;5998;42.676;23.268;2023-09-07T11:13:37;11.60;;;6.30;;
11877;SDS011;5998;42.676;23.268;2023-09-07T11:16:06;9.87;;;5.87;;
11877;SDS011;5998;42.676;23.268;2023-09-07T11:18:33;10.03;;;5.70;;
11877;SDS011;5998;42.676;23.268;2023-09-07T11:21:01;7.30;;;5.77;;
11877;SDS011;5998;42.676;23.268;2023-09-07T11:23:31;7.40;;;4.70;;
11877;SDS011;5998;42.676;23.268;2023-09-07T11:26:03;8.63;;;5.60;;
11877;SDS011;5998;42.676;23.268;2023-09-07T11:28:30;5.90;;;4.63;;
11877;SDS011;5998;42.676;23.268;2023-09-07T11:30:56;6.20;;;5.00;;
11877;SDS011;5998;42.676;23.268;2023-09-07T11:33:24;8.93;;;4.90;;
11877;SDS011;5998;42.676;23.268;2023-09-07T11:35:51;6.33;;;4.60;;
11877;SDS011;5998;42.676;23.268;2023-09-07T11:38:19;7.00;;;4.80;;
11877;SDS011;5998;42.676;23.268;2023-09-07T11:40:47;6.10;;;4.00;;
11877;SDS011;5998;42.676;23.268;2023-09-07T11:43:13;6.30;;;5.00;;
11877;SDS011;5998;42.676;23.268;2023-09-07T11:45:40;6.50;;;4.40;;
11877;SDS011;5998;42.676;23.268;2023-09-07T11:48:07;8.13;;;4.83;;
11877;SDS011;5998;42.676;23.268;2023-09-07T11:50:35;7.07;;;5.60;;
11877;SDS011;5998;42.676;23.268;2023-09-07T11:53:01;10.97;;;5.20;;
11877;SDS011;5998;42.676;23.268;2023-09-07T11:55:28;4.87;;;4.47;;
11877;SDS011;5998;42.676;23.268;2023-09-07T11:57:56;9.50;;;4.90;;
11877;SDS011;5998;42.676;23.268;2023-09-07T12:00:23;8.27;;;4.70;;
11877;SDS011;5998;42.676;23.268;2023-09-07T12:02:49;6.33;;;4.80;;
11877;SDS011;5998;42.676;23.268;2023-09-07T12:05:15;5.03;;;4.23;;
11877;SDS011;5998;42.676;23.268;2023-09-07T12:07:44;9.33;;;4.10;;
11877;SDS011;5998;42.676;23.268;2023-09-07T12:10:10;6.50;;;4.73;;
11877;SDS011;5998;42.676;23.268;2023-09-07T12:12:38;7.00;;;4.80;;
11877;SDS011;5998;42.676;23.268;2023-09-07T12:15:07;10.10;;;4.77;;
11877;SDS011;5998;42.676;23.268;2023-09-07T12:17:34;6.93;;;4.60;;
11877;SDS011;5998;42.676;23.268;2023-09-07T12:20:00;5.87;;;4.30;;
11877;SDS011;5998;42.676;23.268;2023-09-07T12:22:27;10.23;;;4.87;;
11877;SDS011;5998;42.676;23.268;2023-09-07T12:24:55;5.10;;;4.30;;
11877;SDS011;5998;42.676;23.268;2023-09-07T12:27:22;6.13;;;4.63;;
11877;SDS011;5998;42.676;23.268;2023-09-07T12:29:48;5.27;;;4.20;;
11877;SDS011;5998;42.676;23.268;2023-09-07T12:32:17;4.70;;;4.17;;
11877;SDS011;5998;42.676;23.268;2023-09-07T12:34:43;5.73;;;4.37;;
11877;SDS011;5998;42.676;23.268;2023-09-07T12:37:10;6.77;;;4.37;;
11877;SDS011;5998;42.676;23.268;2023-09-07T12:39:36;5.63;;;4.40;;
11877;SDS011;5998;42.676;23.268;2023-09-07T12:42:03;6.80;;;4.20;;
11877;SDS011;5998;42.676;23.268;2023-09-07T12:44:29;7.30;;;4.80;;
11877;SDS011;5998;42.676;23.268;2023-09-07T12:46:56;8.73;;;5.43;;
11877;SDS011;5998;42.676;23.268;2023-09-07T12:49:23;6.60;;;4.90;;
11877;SDS011;5998;42.676;23.268;2023-09-07T12:51:50;7.60;;;4.90;;
11877;SDS011;5998;42.676;23.268;2023-09-07T12:54:16;8.63;;;5.07;;
11877;SDS011;5998;42.676;23.268;2023-09-07T12:56:43;9.03;;;4.83;;
11877;SDS011;5998;42.676;23.268;2023-09-07T12:59:10;5.63;;;4.67;;
11877;SDS011;5998;42.676;23.268;2023-09-07T13:01:37;5.83;;;4.30;;
11877;SDS011;5998;42.676;23.268;2023-09-07T13:04:03;7.97;;;4.50;;
11877;SDS011;5998;42.676;23.268;2023-09-07T13:06:31;5.97;;;4.57;;
11877;SDS011;5998;42.676;23.268;2023-09-07T13:08:57;7.53;;;4.60;;
11877;SDS011;5998;42.676;23.268;2023-09-07T13:11:24;4.80;;;4.40;;
11877;SDS011;5998;42.676;23.268;2023-09-07T13:13:50;8.37;;;4.60;;
11877;SDS011;5998;42.676;23.268;2023-09-07T13:16:17;5.73;;;4.40;;
11877;SDS011;5998;42.676;23.268;2023-09-07T13:18:44;10.67;;;4.40;;
11877;SDS011;5998;42.676;23.268;2023-09-07T13:21:10;12.27;;;5.30;;
11877;SDS011;5998;42.676;23.268;2023-09-07T13:23:38;7.23;;;4.17;;
11877;SDS011;5998;42.676;23.268;2023-09-07T13:26:06;6.03;;;4.30;;
11877;SDS011;5998;42.676;23.268;2023-09-07T13:28:32;6.87;;;4.60;;
11877;SDS011;5998;42.676;23.268;2023-09-07T13:30:59;7.43;;;4.30;;
11877;SDS011;5998;42.676;23.268;2023-09-07T13:33:25;5.97;;;4.40;;
11877;SDS011;5998;42.676;23.268;2023-09-07T13:35:52;8.30;;;4.80;;
11877;SDS011;5998;42.676;23.268;2023-09-07T13:38:18;6.37;;;4.30;;
11877;SDS011;5998;42.676;23.268;2023-09-07T13:40:46;5.00;;;4.50;;
11877;SDS011;5998;42.676;23.268;2023-09-07T13:43:13;5.67;;;4.27;;
11877;SDS011;5998;42.676;23.268;2023-09-07T13:45:39;6.63;;;4.20;;
11877;SDS011;5998;42.676;23.268;2023-09-07T13:48:06;5.60;;;4.50;;
11877;SDS011;5998;42.676;23.268;2023-09-07T13:50:32;6.23;;;4.83;;
11877;SDS011;5998;42.676;23.268;2023-09-07T13:52:58;7.80;;;4.13;;
11877;SDS011;5998;42.676;23.268;2023-09-07T13:55:25;5.47;;;4.20;;
11877;SDS011;5998;42.676;23.268;2023-09-07T13:57:53;6.20;;;4.17;;
11877;SDS011;5998;42.676;23.268;2023-09-07T14:00:19;6.50;;;3.80;;
11877;SDS011;5998;42.676;23.268;2023-09-07T14:02:46;5.07;;;4.20;;
11877;SDS011;5998;42.676;23.268;2023-09-07T14:05:12;5.47;;;3.93;;
11877;SDS011;5998;42.676;23.268;2023-09-07T14:07:38;5.07;;;4.57;;
11877;SDS011;5998;42.676;23.268;2023-09-07T14:10:05;5.83;;;4.10;;
11877;SDS011;5998;42.676;23.268;2023-09-07T14:12:32;4.93;;;4.50;;
11877;SDS011;5998;42.676;23.268;2023-09-07T14:14:59;6.23;;;4.40;;
11877;SDS011;5998;42.676;23.268;2023-09-07T14:17:26;6.03;;;4.67;;
11877;SDS011;5998;42.676;23.268;2023-09-07T14:19:52;5.87;;;4.93;;
11877;SDS011;5998;42.676;23.268;2023-09-07T14:22:19;5.37;;;4.70;;
11877;SDS011;5998;42.676;23.268;2023-09-07T14:24:45;6.27;;;5.23;;
11877;SDS011;5998;42.676;23.268;2023-09-07T14:27:12;4.67;;;4.27;;
11877;SDS011;5998;42.676;23.268;2023-09-07T14:29:38;7.43;;;4.30;;
11877;SDS011;5998;42.676;23.268;2023-09-07T14:32:06;9.67;;;5.60;;
11877;SDS011;5998;42.676;23.268;2023-09-07T14:34:33;7.03;;;4.90;;